Time;durP1;ratioP1;P1;durP2;ratioP2;P2;SDS_P1;SDS_P2;PMS_P1;PMS_P2;Temp;Humidity;BMP_temperature;BMP_pressure;BME280_temperature;BME280_humidity;BME280_pressure;Samples;Min_cycle;Max_cycle;Signal;HPM_P1;HPM_P2
2022/12/10 00:01:15;;;;;;;63.17;30.63;;;;;;;;;;4934704;29;20118;-71
2022/12/10 00:03:42;;;;;;;75.85;33.45;;;;;;;;;;4929394;29;20034;-71
2022/12/10 00:06:11;;;;;;;65.50;34.88;;;;;;;;;;4934699;29;20118;-71
2022/12/10 00:08:37;;;;;;;56.67;32.38;;;;;;;;;;4933563;29;20063;-71
2022/12/10 00:11:06;;;;;;;57.83;31.52;;;;;;;;;;4935612;29;20087;-71
2022/12/10 00:13:33;;;;;;;68.28;31.75;;;;;;;;;;4930875;29;21364;-71
2022/12/10 00:16:00;;;;;;;68.47;31.33;;;;;;;;;;4934185;29;20126;-72
2022/12/10 00:18:26;;;;;;;57.10;27.75;;;;;;;;;;4932379;29;20035;-72
2022/12/10 00:20:52;;;;;;;62.40;29.75;;;;;;;;;;4933931;29;20481;-71
2022/12/10 00:23:18;;;;;;;49.33;28.98;;;;;;;;;;4932622;29;20123;-72
2022/12/10 00:25:44;;;;;;;55.70;27.23;;;;;;;;;;4933256;29;20120;-72
2022/12/10 00:28:10;;;;;;;46.63;25.92;;;;;;;;;;4941149;29;20090;-71
2022/12/10 00:30:37;;;;;;;43.20;25.35;;;;;;;;;;4934008;29;20070;-72
2022/12/10 00:33:03;;;;;;;47.72;25.15;;;;;;;;;;4928109;29;20040;-72
2022/12/10 00:35:29;;;;;;;40.05;24.25;;;;;;;;;;4929199;29;20032;-72
2022/12/10 00:37:55;;;;;;;42.30;23.67;;;;;;;;;;4934219;29;20526;-72
2022/12/10 00:40:21;;;;;;;41.38;24.63;;;;;;;;;;4933661;29;20038;-72
2022/12/10 00:42:47;;;;;;;44.28;25.33;;;;;;;;;;4933696;29;20106;-71
2022/12/10 00:45:13;;;;;;;47.08;25.42;;;;;;;;;;4932439;29;20031;-71
2022/12/10 00:47:39;;;;;;;48.35;25.83;;;;;;;;;;4936596;29;20028;-72
2022/12/10 00:50:05;;;;;;;51.95;27.90;;;;;;;;;;4933221;29;20039;-71
2022/12/10 00:52:31;;;;;;;49.97;25.42;;;;;;;;;;4932901;29;20059;-70
2022/12/10 00:54:57;;;;;;;41.75;24.42;;;;;;;;;;4945143;29;20524;-72
2022/12/10 00:57:23;;;;;;;45.35;25.20;;;;;;;;;;4931105;29;20086;-71
2022/12/10 00:59:49;;;;;;;39.88;23.35;;;;;;;;;;4933094;29;20382;-71
2022/12/10 01:02:15;;;;;;;37.03;22.55;;;;;;;;;;4933351;29;20036;-70
2022/12/10 01:04:41;;;;;;;39.13;23.85;;;;;;;;;;4928551;29;20031;-72
2022/12/10 01:07:09;;;;;;;44.33;25.45;;;;;;;;;;4925265;29;20043;-72
2022/12/10 01:09:35;;;;;;;52.72;25.33;;;;;;;;;;4932603;29;20039;-72
2022/12/10 01:12:03;;;;;;;40.72;23.85;;;;;;;;;;4934449;29;20402;-71
2022/12/10 01:14:32;;;;;;;51.95;28.20;;;;;;;;;;4932726;29;20031;-71
2022/12/10 01:17:04;;;;;;;48.78;23.90;;;;;;;;;;4933212;29;20024;-71
2022/12/10 01:19:32;;;;;;;41.92;24.35;;;;;;;;;;4929739;29;20488;-71
2022/12/10 01:22:01;;;;;;;44.38;23.55;;;;;;;;;;4932970;29;20056;-71
2022/12/10 01:24:29;;;;;;;46.90;25.42;;;;;;;;;;4927848;29;20035;-71
2022/12/10 01:26:55;;;;;;;47.80;26.73;;;;;;;;;;4929917;29;20107;-72
2022/12/10 01:29:21;;;;;;;42.47;23.80;;;;;;;;;;4932930;29;20043;-71
2022/12/10 01:31:52;;;;;;;41.15;23.02;;;;;;;;;;4933682;29;20044;-72
2022/12/10 01:34:17;;;;;;;44.55;23.75;;;;;;;;;;4931187;29;20047;-71
2022/12/10 01:36:45;;;;;;;39.28;22.17;;;;;;;;;;4934147;29;20038;-73
2022/12/10 01:39:13;;;;;;;39.97;23.48;;;;;;;;;;4931884;29;20485;-70
2022/12/10 01:41:49;;;;;;;42.75;24.85;;;;;;;;;;4930281;29;20047;-72
2022/12/10 01:44:16;;;;;;;45.83;25.52;;;;;;;;;;4927150;29;20118;-72
2022/12/10 01:46:48;;;;;;;46.65;25.02;;;;;;;;;;4925085;29;20115;-72
2022/12/10 01:49:18;;;;;;;47.05;24.05;;;;;;;;;;4928050;29;20040;-72
2022/12/10 01:51:48;;;;;;;45.15;23.45;;;;;;;;;;4932415;29;20516;-72
2022/12/10 01:54:21;;;;;;;40.47;23.48;;;;;;;;;;4938423;29;20057;-72
2022/12/10 01:56:52;;;;;;;41.80;23.65;;;;;;;;;;4928122;29;20039;-72
2022/12/10 01:59:18;;;;;;;48.78;25.35;;;;;;;;;;4929273;29;20036;-71
2022/12/10 02:01:56;;;;;;;40.10;23.77;;;;;;;;;;4932639;29;20043;-72
2022/12/10 02:04:43;;;;;;;43.92;24.00;;;;;;;;;;4932424;29;20501;-70
2022/12/10 02:07:25;;;;;;;42.50;23.98;;;;;;;;;;4929098;29;20126;-70
2022/12/10 02:10:09;;;;;;;45.70;23.88;;;;;;;;;;4935553;29;20035;-72
2022/12/10 02:12:43;;;;;;;44.67;24.33;;;;;;;;;;4919258;29;20580;-71
2022/12/10 02:15:16;;;;;;;48.85;25.10;;;;;;;;;;4925783;29;20035;-71
2022/12/10 02:17:48;;;;;;;42.15;24.88;;;;;;;;;;4935579;29;20071;-71
2022/12/10 02:20:20;;;;;;;38.78;23.50;;;;;;;;;;4937346;29;20070;-71
2022/12/10 02:22:52;;;;;;;41.97;23.88;;;;;;;;;;4935722;29;20079;-71
2022/12/10 02:25:24;;;;;;;45.33;24.73;;;;;;;;;;4926063;29;20060;-71
2022/12/10 02:28:21;;;;;;;43.63;23.85;;;;;;;;;;4932361;29;20032;-71
2022/12/10 02:30:50;;;;;;;44.42;24.83;;;;;;;;;;4931946;29;20039;-72
2022/12/10 02:33:18;;;;;;;45.38;23.85;;;;;;;;;;4943945;29;20081;-71
2022/12/10 02:35:49;;;;;;;42.13;23.67;;;;;;;;;;4941168;29;20047;-71
2022/12/10 02:38:29;;;;;;;43.60;24.08;;;;;;;;;;4936377;29;20094;-71
2022/12/10 02:41:06;;;;;;;44.20;25.92;;;;;;;;;;4934551;29;20040;-72
2022/12/10 02:43:34;;;;;;;53.22;28.77;;;;;;;;;;4935813;29;20050;-71
2022/12/10 02:46:04;;;;;;;44.15;25.13;;;;;;;;;;4934782;29;20039;-73
2022/12/10 02:48:32;;;;;;;46.88;24.40;;;;;;;;;;4936873;29;20035;-71
2022/12/10 02:50:58;;;;;;;43.92;25.02;;;;;;;;;;4922354;29;20074;-71
2022/12/10 02:53:26;;;;;;;50.15;27.35;;;;;;;;;;4914781;29;20043;-71
2022/12/10 02:56:17;;;;;;;44.97;26.00;;;;;;;;;;4944655;29;20040;-71
2022/12/10 02:59:09;;;;;;;56.53;26.17;;;;;;;;;;4934826;29;20408;-71
2022/12/10 03:01:45;;;;;;;45.90;25.05;;;;;;;;;;4931389;29;20062;-71
2022/12/10 03:04:16;;;;;;;;;;;;;;;;;;4932903;29;20118;-71
2022/12/10 03:06:50;;;;;;;51.53;27.17;;;;;;;;;;4936461;28;20288;-73
2022/12/10 03:09:40;;;;;;;57.13;28.38;;;;;;;;;;4937876;28;20044;-71
2022/12/10 03:12:22;;;;;;;58.53;31.88;;;;;;;;;;4917143;29;20032;-72
2022/12/10 03:14:48;;;;;;;63.58;32.08;;;;;;;;;;4922344;29;20135;-71
2022/12/10 03:17:15;;;;;;;78.22;39.60;;;;;;;;;;4931387;29;20031;-71
2022/12/10 03:19:46;;;;;;;71.53;38.63;;;;;;;;;;4934043;29;20413;-71
2022/12/10 03:22:16;;;;;;;77.97;38.85;;;;;;;;;;4934793;29;20457;-71
2022/12/10 03:24:43;;;;;;;70.38;38.13;;;;;;;;;;4919023;29;20043;-70
2022/12/10 03:27:12;;;;;;;76.72;39.40;;;;;;;;;;4935534;29;20351;-72
2022/12/10 03:29:45;;;;;;;64.15;37.60;;;;;;;;;;4934830;29;20032;-72
2022/12/10 03:32:11;;;;;;;68.35;39.10;;;;;;;;;;4949622;28;20504;-71
2022/12/10 03:35:00;;;;;;;66.32;37.55;;;;;;;;;;4929487;29;20054;-71
2022/12/10 03:37:27;;;;;;;63.28;34.05;;;;;;;;;;4932803;29;20090;-71
2022/12/10 03:39:53;;;;;;;52.65;31.98;;;;;;;;;;4932691;29;20231;-72
2022/12/10 03:42:19;;;;;;;54.95;31.08;;;;;;;;;;4932821;29;20394;-71
2022/12/10 03:44:49;;;;;;;55.42;33.30;;;;;;;;;;4932814;29;20103;-72
2022/12/10 03:47:15;;;;;;;59.10;35.47;;;;;;;;;;4916530;29;20047;-70
2022/12/10 03:49:42;;;;;;;56.17;33.88;;;;;;;;;;4932991;29;20031;-71
2022/12/10 03:52:08;;;;;;;57.60;32.03;;;;;;;;;;4913422;29;20046;-71
2022/12/10 03:54:34;;;;;;;53.03;30.45;;;;;;;;;;4914290;29;20036;-72
2022/12/10 03:57:00;;;;;;;60.65;31.15;;;;;;;;;;4913370;29;20099;-72
2022/12/10 03:59:26;;;;;;;57.50;30.83;;;;;;;;;;4913511;29;20040;-72
2022/12/10 04:01:52;;;;;;;52.83;28.60;;;;;;;;;;4912780;29;20621;-72
2022/12/10 04:04:18;;;;;;;50.63;28.45;;;;;;;;;;4930713;29;20031;-72
2022/12/10 04:06:44;;;;;;;52.50;30.17;;;;;;;;;;4931874;29;20032;-72
2022/12/10 04:09:13;;;;;;;51.83;27.67;;;;;;;;;;4934599;29;20166;-71
2022/12/10 04:11:39;;;;;;;48.75;27.77;;;;;;;;;;4919173;29;20036;-71
2022/12/10 04:16:49;;;;;;;50.22;26.50;;;;;;;;;;4931328;29;20552;-71
2022/12/10 04:19:16;;;;;;;46.83;25.77;;;;;;;;;;4934421;29;20075;-72
2022/12/10 04:27:30;;;;;;;42.58;25.80;;;;;;;;;;4915185;29;20032;-71
2022/12/10 04:29:57;;;;;;;52.50;28.83;;;;;;;;;;4915420;29;20035;-72
2022/12/10 04:32:26;;;;;;;51.97;29.02;;;;;;;;;;4931457;29;20501;-71
2022/12/10 04:34:51;;;;;;;56.20;29.02;;;;;;;;;;4924625;29;20043;-72
2022/12/10 04:37:18;;;;;;;49.13;26.38;;;;;;;;;;4934394;29;20031;-72
2022/12/10 04:39:45;;;;;;;55.17;27.55;;;;;;;;;;4933433;29;20039;-72
2022/12/10 04:42:11;;;;;;;44.15;25.67;;;;;;;;;;4932721;29;20070;-72
2022/12/10 04:44:38;;;;;;;40.78;23.88;;;;;;;;;;4933489;29;20047;-72
2022/12/10 04:47:05;;;;;;;44.50;25.23;;;;;;;;;;4933903;29;20027;-73
2022/12/10 04:49:32;;;;;;;49.50;26.63;;;;;;;;;;4933326;29;20039;-71
2022/12/10 04:51:58;;;;;;;45.55;25.65;;;;;;;;;;4918879;29;20043;-71
2022/12/10 04:54:24;;;;;;;59.47;27.00;;;;;;;;;;4915071;29;20032;-72
2022/12/10 04:56:50;;;;;;;55.17;25.95;;;;;;;;;;4916171;29;20028;-72
2022/12/10 04:59:16;;;;;;;44.55;27.52;;;;;;;;;;4914764;29;20083;-72
2022/12/10 05:01:42;;;;;;;55.00;29.88;;;;;;;;;;4915137;29;20059;-71
2022/12/10 05:04:11;;;;;;;53.88;30.48;;;;;;;;;;4929815;29;20532;-72
2022/12/10 05:06:37;;;;;;;54.63;31.58;;;;;;;;;;4933851;29;20034;-71
2022/12/10 05:09:05;;;;;;;66.10;34.15;;;;;;;;;;4933502;29;20057;-72
2022/12/10 05:11:32;;;;;;;57.70;32.47;;;;;;;;;;4922873;29;20386;-71
2022/12/10 05:13:59;;;;;;;68.18;37.50;;;;;;;;;;4914391;29;20036;-72
2022/12/10 05:16:28;;;;;;;69.35;35.70;;;;;;;;;;4914747;29;20043;-71
2022/12/10 05:18:55;;;;;;;79.03;38.35;;;;;;;;;;4926366;29;20126;-71
2022/12/10 05:21:22;;;;;;;70.68;37.38;;;;;;;;;;4931360;29;20040;-71
2022/12/10 05:23:51;;;;;;;74.13;37.22;;;;;;;;;;4927394;29;20048;-72
2022/12/10 05:26:22;;;;;;;73.60;36.72;;;;;;;;;;4925309;29;20059;-71
2022/12/10 05:28:51;;;;;;;56.88;34.45;;;;;;;;;;4915112;29;20486;-71
2022/12/10 05:31:29;;;;;;;73.45;36.47;;;;;;;;;;4914628;29;20040;-71
2022/12/10 05:33:57;;;;;;;69.07;36.90;;;;;;;;;;4915171;29;20538;-72
2022/12/10 05:36:26;;;;;;;70.30;35.97;;;;;;;;;;4915066;29;20039;-71
2022/12/10 05:38:54;;;;;;;70.45;35.72;;;;;;;;;;4915364;29;20401;-71
2022/12/10 05:41:26;;;;;;;62.17;34.30;;;;;;;;;;4914972;29;20095;-72
2022/12/10 05:43:54;;;;;;;63.67;34.55;;;;;;;;;;4920451;29;20464;-72
2022/12/10 05:46:26;;;;;;;81.65;34.55;;;;;;;;;;4921461;29;20383;-71
2022/12/10 05:48:53;;;;;;;65.13;34.78;;;;;;;;;;4924856;29;20478;-71
2022/12/10 05:51:25;;;;;;;58.78;32.90;;;;;;;;;;4939913;29;20171;-71
2022/12/10 05:53:52;;;;;;;50.78;29.38;;;;;;;;;;4934408;29;20115;-72
2022/12/10 05:56:21;;;;;;;67.88;31.55;;;;;;;;;;4935329;29;20048;-72
2022/12/10 05:58:49;;;;;;;50.25;29.33;;;;;;;;;;4940687;29;20096;-73
2022/12/10 06:01:18;;;;;;;60.20;31.60;;;;;;;;;;4939724;29;20053;-71
2022/12/10 06:03:44;;;;;;;68.93;33.95;;;;;;;;;;4940436;29;20513;-72
2022/12/10 06:06:11;;;;;;;73.35;34.85;;;;;;;;;;4939768;29;20509;-73
2022/12/10 06:08:38;;;;;;;55.88;31.73;;;;;;;;;;4938343;29;20118;-73
2022/12/10 06:11:09;;;;;;;58.58;33.28;;;;;;;;;;4936418;29;20032;-72
2022/12/10 06:13:35;;;;;;;59.95;32.95;;;;;;;;;;4936152;29;20118;-72
2022/12/10 06:16:07;;;;;;;58.22;31.15;;;;;;;;;;4940045;29;20053;-74
2022/12/10 06:18:33;;;;;;;64.30;31.63;;;;;;;;;;4937592;28;20036;-73
2022/12/10 06:21:03;;;;;;;61.42;34.53;;;;;;;;;;4939686;29;20034;-73
2022/12/10 06:23:30;;;;;;;59.38;32.92;;;;;;;;;;4940518;29;20074;-73
2022/12/10 06:25:55;;;;;;;66.78;35.78;;;;;;;;;;4935480;29;20437;-73
2022/12/10 06:28:22;;;;;;;65.55;35.75;;;;;;;;;;4939294;29;20044;-73
2022/12/10 06:30:47;;;;;;;63.47;34.40;;;;;;;;;;4954782;28;20095;-73
2022/12/10 06:33:13;;;;;;;55.72;34.15;;;;;;;;;;4940590;29;20043;-72
2022/12/10 06:35:39;;;;;;;58.00;34.13;;;;;;;;;;4940892;29;20042;-72
2022/12/10 06:38:05;;;;;;;64.75;34.38;;;;;;;;;;4933882;29;20031;-72
2022/12/10 06:40:31;;;;;;;83.75;36.38;;;;;;;;;;4922302;29;20066;-73
2022/12/10 06:42:57;;;;;;;64.10;36.92;;;;;;;;;;4922535;29;20067;-72
2022/12/10 06:45:23;;;;;;;60.55;32.75;;;;;;;;;;4921549;29;20528;-73
2022/12/10 06:47:49;;;;;;;58.05;33.63;;;;;;;;;;4921852;29;20075;-72
2022/12/10 06:50:15;;;;;;;54.90;34.75;;;;;;;;;;4938233;29;20039;-72
2022/12/10 06:52:42;;;;;;;57.20;34.42;;;;;;;;;;4941113;29;20095;-73
2022/12/10 06:55:08;;;;;;;63.50;33.83;;;;;;;;;;4936009;29;20043;-73
2022/12/10 06:57:34;;;;;;;78.82;35.55;;;;;;;;;;4937164;29;20039;-71
2022/12/10 07:00:02;;;;;;;72.72;38.38;;;;;;;;;;4934975;29;20071;-73
2022/12/10 07:02:28;;;;;;;79.43;38.55;;;;;;;;;;4936942;29;20024;-73
2022/12/10 07:04:56;;;;;;;74.65;39.13;;;;;;;;;;4933796;29;20118;-72
2022/12/10 07:07:22;;;;;;;80.28;39.15;;;;;;;;;;4936009;29;20034;-73
2022/12/10 07:09:48;;;;;;;63.20;37.00;;;;;;;;;;4937293;28;20592;-72
2022/12/10 07:12:15;;;;;;;62.60;35.60;;;;;;;;;;4936828;29;20051;-73
2022/12/10 07:14:41;;;;;;;65.40;38.58;;;;;;;;;;4936708;29;20042;-73
2022/12/10 07:17:07;;;;;;;66.43;35.97;;;;;;;;;;4935121;29;20023;-73
2022/12/10 07:19:33;;;;;;;61.03;35.22;;;;;;;;;;4934775;29;20506;-73
2022/12/10 07:21:59;;;;;;;67.43;34.15;;;;;;;;;;4935462;29;20047;-72
2022/12/10 07:24:25;;;;;;;72.57;37.42;;;;;;;;;;4938294;29;20042;-73
2022/12/10 07:26:52;;;;;;;58.10;34.08;;;;;;;;;;4937577;29;20134;-73
2022/12/10 07:29:20;;;;;;;53.05;32.85;;;;;;;;;;4932396;29;20023;-73
2022/12/10 07:31:48;;;;;;;54.50;32.35;;;;;;;;;;4931752;29;20047;-73
2022/12/10 07:34:14;;;;;;;50.65;31.45;;;;;;;;;;4936808;29;20072;-72
2022/12/10 07:36:40;;;;;;;70.72;31.02;;;;;;;;;;4936880;29;20023;-72
2022/12/10 07:39:08;;;;;;;49.35;29.05;;;;;;;;;;4935891;29;20055;-73
2022/12/10 07:41:35;;;;;;;58.63;28.77;;;;;;;;;;4929574;29;20040;-74
2022/12/10 07:44:03;;;;;;;52.13;29.40;;;;;;;;;;4916953;29;20039;-72
2022/12/10 07:46:31;;;;;;;48.97;27.70;;;;;;;;;;4916495;29;20044;-74
2022/12/10 07:49:00;;;;;;;70.63;27.70;;;;;;;;;;4917185;29;20040;-74
2022/12/10 07:51:26;;;;;;;57.50;24.05;;;;;;;;;;4917125;29;20032;-73
2022/12/10 07:53:53;;;;;;;43.40;22.50;;;;;;;;;;4916621;29;20042;-74
2022/12/10 07:56:21;;;;;;;44.08;22.25;;;;;;;;;;4917170;29;20106;-74
2022/12/10 07:58:49;;;;;;;42.05;22.70;;;;;;;;;;4922384;29;20035;-74
2022/12/10 08:01:18;;;;;;;40.45;23.27;;;;;;;;;;4950842;29;20031;-73
2022/12/10 08:03:45;;;;;;;40.67;23.00;;;;;;;;;;4936124;29;20410;-74
2022/12/10 08:06:17;;;;;;;45.97;23.60;;;;;;;;;;4936139;29;20410;-75
2022/12/10 08:08:44;;;;;;;47.10;23.75;;;;;;;;;;4932298;29;20046;-76
2022/12/10 08:11:11;;;;;;;51.67;24.17;;;;;;;;;;4950508;29;20413;-74
2022/12/10 08:13:38;;;;;;;35.67;22.95;;;;;;;;;;4935087;29;20043;-74
2022/12/10 08:16:10;;;;;;;41.58;22.80;;;;;;;;;;4935487;29;20047;-74
2022/12/10 08:18:37;;;;;;;41.00;22.30;;;;;;;;;;4935721;29;20039;-74
2022/12/10 08:21:11;;;;;;;40.30;22.55;;;;;;;;;;4934791;29;20382;-75
2022/12/10 08:23:37;;;;;;;44.42;22.77;;;;;;;;;;4950300;29;20095;-74
2022/12/10 08:26:09;;;;;;;39.90;19.77;;;;;;;;;;4935914;29;20035;-72
2022/12/10 08:28:36;;;;;;;32.15;17.10;;;;;;;;;;4935514;29;20039;-76
2022/12/10 08:31:05;;;;;;;40.13;16.80;;;;;;;;;;4949947;29;20040;-76
2022/12/10 08:33:34;;;;;;;33.17;16.48;;;;;;;;;;4932583;29;20031;-75
2022/12/10 08:36:01;;;;;;;41.70;17.85;;;;;;;;;;4934282;29;20040;-75
2022/12/10 08:38:29;;;;;;;37.78;17.40;;;;;;;;;;4933885;29;20040;-74
2022/12/10 08:40:56;;;;;;;33.72;16.55;;;;;;;;;;4917073;29;20104;-73
2022/12/10 08:43:22;;;;;;;35.92;16.35;;;;;;;;;;4922035;29;20481;-72
2022/12/10 08:45:48;;;;;;;34.05;16.27;;;;;;;;;;4928761;29;20038;-75
2022/12/10 08:48:14;;;;;;;31.15;16.20;;;;;;;;;;4920145;29;20092;-73
2022/12/10 08:50:40;;;;;;;30.83;14.88;;;;;;;;;;4914146;29;20103;-74
2022/12/10 08:53:07;;;;;;;42.80;16.15;;;;;;;;;;4912672;29;20562;-74
2022/12/10 08:55:38;;;;;;;27.20;13.93;;;;;;;;;;4914606;29;20040;-74
2022/12/10 08:58:04;;;;;;;25.00;13.88;;;;;;;;;;4915021;29;20040;-74
2022/12/10 09:00:36;;;;;;;26.73;15.02;;;;;;;;;;4915246;29;20055;-75
2022/12/10 09:03:03;;;;;;;35.20;17.02;;;;;;;;;;4928955;29;20036;-75
2022/12/10 09:05:29;;;;;;;40.40;17.95;;;;;;;;;;4916082;29;20092;-75
2022/12/10 09:07:55;;;;;;;37.95;17.50;;;;;;;;;;4915641;29;20127;-74
2022/12/10 09:10:21;;;;;;;31.80;16.48;;;;;;;;;;4915820;29;20068;-74
2022/12/10 09:12:47;;;;;;;31.88;15.73;;;;;;;;;;4930734;29;20507;-75
2022/12/10 09:15:13;;;;;;;27.20;15.05;;;;;;;;;;4916254;29;20115;-74
2022/12/10 09:17:39;;;;;;;28.73;15.95;;;;;;;;;;4930374;29;20032;-74
2022/12/10 09:20:06;;;;;;;30.58;18.40;;;;;;;;;;4916437;29;20036;-75
2022/12/10 09:22:32;;;;;;;52.63;20.05;;;;;;;;;;4917218;29;20055;-74
2022/12/10 09:24:58;;;;;;;45.65;18.20;;;;;;;;;;4935334;29;20035;-73
2022/12/10 09:27:24;;;;;;;49.17;18.10;;;;;;;;;;4935092;29;20063;-74
2022/12/10 09:29:52;;;;;;;42.63;19.38;;;;;;;;;;4933970;29;20392;-75
2022/12/10 09:32:18;;;;;;;41.00;19.35;;;;;;;;;;4933865;29;20031;-76
2022/12/10 09:34:44;;;;;;;41.80;19.85;;;;;;;;;;4933418;29;20367;-77
2022/12/10 09:37:10;;;;;;;48.90;18.70;;;;;;;;;;4947181;29;20042;-73
2022/12/10 09:39:36;;;;;;;32.80;15.10;;;;;;;;;;4934872;29;20405;-75
2022/12/10 09:42:13;;;;;;;30.73;15.00;;;;;;;;;;4933584;29;20032;-76
2022/12/10 09:44:57;;;;;;;29.00;14.43;;;;;;;;;;4934982;29;20476;-73
2022/12/10 09:47:31;;;;;;;32.65;13.88;;;;;;;;;;4934886;29;20074;-73
2022/12/10 09:50:16;;;;;;;26.63;11.32;;;;;;;;;;4949068;29;20028;-77
2022/12/10 09:52:45;;;;;;;24.20;10.57;;;;;;;;;;4935416;29;20405;-76
2022/12/10 09:55:22;;;;;;;21.73;10.60;;;;;;;;;;4935170;29;20039;-76
2022/12/10 09:57:50;;;;;;;33.40;12.38;;;;;;;;;;4934600;29;20051;-75
2022/12/10 10:00:36;;;;;;;29.70;11.23;;;;;;;;;;4932220;29;20044;-74
2022/12/10 10:03:03;;;;;;;27.15;11.75;;;;;;;;;;4934934;29;20075;-74
2022/12/10 10:05:32;;;;;;;23.27;11.43;;;;;;;;;;4933896;29;20040;-75
2022/12/10 10:08:04;;;;;;;28.45;10.68;;;;;;;;;;4928651;29;20036;-74
2022/12/10 10:10:31;;;;;;;25.00;11.85;;;;;;;;;;4940463;29;20103;-77
2022/12/10 10:13:12;;;;;;;21.70;12.57;;;;;;;;;;4935250;29;20046;-77
2022/12/10 10:15:43;;;;;;;25.63;13.40;;;;;;;;;;4915368;29;20040;-77
2022/12/10 10:18:21;;;;;;;50.38;17.45;;;;;;;;;;4929610;29;20413;-75
2022/12/10 10:20:47;;;;;;;31.52;15.80;;;;;;;;;;4915477;29;20040;-76
2022/12/10 10:23:15;;;;;;;44.55;17.98;;;;;;;;;;4916696;29;20047;-76
2022/12/10 10:25:44;;;;;;;36.95;17.00;;;;;;;;;;4933826;29;20051;-74
2022/12/10 10:28:13;;;;;;;34.90;16.88;;;;;;;;;;4933223;29;20075;-75
2022/12/10 10:30:43;;;;;;;33.38;17.55;;;;;;;;;;4936356;29;20429;-73
2022/12/10 10:33:12;;;;;;;40.58;18.95;;;;;;;;;;4937833;29;20027;-73
2022/12/10 10:35:53;;;;;;;33.17;17.17;;;;;;;;;;4934972;29;20039;-74
2022/12/10 10:38:28;;;;;;;34.45;16.98;;;;;;;;;;4952188;29;20031;-75
2022/12/10 10:40:58;;;;;;;32.03;16.67;;;;;;;;;;4937203;29;20156;-76
2022/12/10 10:43:31;;;;;;;29.60;14.52;;;;;;;;;;4935511;29;20055;-74
2022/12/10 10:46:04;;;;;;;30.65;13.90;;;;;;;;;;4938092;29;20070;-76
2022/12/10 10:48:31;;;;;;;32.95;15.48;;;;;;;;;;4936895;29;20115;-75
2022/12/10 10:51:12;;;;;;;36.13;15.70;;;;;;;;;;4937003;28;20067;-76
2022/12/10 10:53:41;;;;;;;55.25;18.70;;;;;;;;;;4934205;29;20043;-75
2022/12/10 10:56:39;;;;;;;39.55;16.85;;;;;;;;;;4934262;29;20040;-75
2022/12/10 10:59:06;;;;;;;27.25;14.95;;;;;;;;;;4928615;29;20056;-76
2022/12/10 11:01:51;;;;;;;38.15;16.73;;;;;;;;;;4936881;29;20043;-76
2022/12/10 11:04:48;;;;;;;37.20;15.50;;;;;;;;;;4935040;29;20044;-76
2022/12/10 11:07:32;;;;;;;44.83;16.20;;;;;;;;;;4918007;29;20048;-76
2022/12/10 11:09:58;;;;;;;41.17;13.90;;;;;;;;;;4920951;29;20036;-74
2022/12/10 11:12:37;;;;;;;34.00;14.43;;;;;;;;;;4936077;29;20501;-76
2022/12/10 11:15:22;;;;;;;32.60;13.85;;;;;;;;;;4937907;29;20048;-76
2022/12/10 11:17:50;;;;;;;28.48;14.63;;;;;;;;;;4938156;29;20079;-75
2022/12/10 11:20:22;;;;;;;32.35;13.63;;;;;;;;;;4939690;29;20126;-75
2022/12/10 11:22:58;;;;;;;26.52;10.23;;;;;;;;;;4935749;29;20081;-76
2022/12/10 11:26:14;;;;;;;25.95;10.68;;;;;;;;;;4937408;29;20390;-76
2022/12/10 11:28:51;;;;;;;27.70;11.85;;;;;;;;;;4897217;29;20522;-76
2022/12/10 11:31:43;;;;;;;23.73;11.80;;;;;;;;;;4896701;29;20115;-76
2022/12/10 11:34:23;;;;;;;27.15;11.30;;;;;;;;;;4926248;29;20068;-77
2022/12/10 11:36:57;;;;;;;27.98;10.23;;;;;;;;;;4936562;29;20427;-76
2022/12/10 11:39:40;;;;;;;;;;;;;;;;;;4937375;29;20046;-76
2022/12/10 11:42:42;;;;;;;32.05;9.10;;;;;;;;;;4932745;29;19923;-76
2022/12/10 11:45:13;;;;;;;25.70;9.20;;;;;;;;;;4909684;29;20051;-76
2022/12/10 11:48:03;;;;;;;24.92;9.93;;;;;;;;;;4918036;29;20036;-76
2022/12/10 11:50:52;;;;;;;31.10;10.35;;;;;;;;;;4926473;29;20036;-76
2022/12/10 11:53:45;;;;;;;29.42;8.40;;;;;;;;;;4921148;29;20401;-77
2022/12/10 11:56:38;;;;;;;34.90;9.33;;;;;;;;;;4925639;29;20397;-77
2022/12/10 11:59:21;;;;;;;38.30;9.80;;;;;;;;;;4917282;29;20321;-77
2022/12/10 12:02:03;;;;;;;27.50;8.95;;;;;;;;;;4917765;29;20270;-77
2022/12/10 12:05:00;;;;;;;21.90;8.68;;;;;;;;;;4932900;29;20435;-77
2022/12/10 12:07:34;;;;;;;24.75;9.07;;;;;;;;;;4929865;29;20090;-76
2022/12/10 12:10:00;;;;;;;23.58;8.98;;;;;;;;;;4933095;29;20031;-76
2022/12/10 12:13:03;;;;;;;33.40;9.82;;;;;;;;;;4936573;29;20036;-77
2022/12/10 12:15:30;;;;;;;30.55;9.77;;;;;;;;;;4950689;29;20197;-77
2022/12/10 12:18:01;;;;;;;25.90;9.10;;;;;;;;;;4944964;29;20493;-75
2022/12/10 12:20:37;;;;;;;21.25;8.98;;;;;;;;;;4938737;29;20055;-77
2022/12/10 12:23:42;;;;;;;28.15;9.50;;;;;;;;;;4915923;29;20052;-77
2022/12/10 12:26:18;;;;;;;18.27;8.38;;;;;;;;;;4918172;29;20063;-77
2022/12/10 12:28:50;;;;;;;19.90;6.78;;;;;;;;;;4950435;29;20044;-76
2022/12/10 12:31:32;;;;;;;17.70;6.40;;;;;;;;;;4936055;29;20042;-76
2022/12/10 12:34:17;;;;;;;27.50;7.82;;;;;;;;;;4934855;29;20042;-76
2022/12/10 12:36:44;;;;;;;19.63;8.50;;;;;;;;;;4936028;29;20051;-76
2022/12/10 12:39:34;;;;;;;30.15;10.05;;;;;;;;;;4934493;29;20035;-77
2022/12/10 12:42:13;;;;;;;26.27;8.98;;;;;;;;;;4936100;29;20090;-77
2022/12/10 12:44:52;;;;;;;20.42;7.07;;;;;;;;;;4935729;28;20098;-76
2022/12/10 12:47:48;;;;;;;17.80;7.65;;;;;;;;;;4923377;29;20040;-77
2022/12/10 12:50:33;;;;;;;15.93;7.68;;;;;;;;;;4916425;29;20051;-77
2022/12/10 12:53:01;;;;;;;30.17;10.02;;;;;;;;;;4914441;29;20039;-75
2022/12/10 12:55:50;;;;;;;23.08;8.95;;;;;;;;;;4916312;29;20035;-76
2022/12/10 12:58:37;;;;;;;25.35;8.80;;;;;;;;;;4918867;29;20032;-78
2022/12/10 13:01:24;;;;;;;22.95;8.75;;;;;;;;;;4929980;29;20067;-76
2022/12/10 13:03:50;;;;;;;14.57;7.50;;;;;;;;;;4934845;29;20034;-76
2022/12/10 13:06:24;;;;;;;20.00;8.00;;;;;;;;;;4933819;29;20111;-75
2022/12/10 13:08:58;;;;;;;;;;;;;;;;;;4935965;29;20023;-76
2022/12/10 13:11:30;;;;;;;;;;;;;;;;;;4947322;29;19931;-76
2022/12/10 13:14:09;;;;;;;16.55;6.95;;;;;;;;;;4934356;29;19987;-77
2022/12/10 13:16:45;;;;;;;23.52;6.65;;;;;;;;;;4934605;29;20504;-76
2022/12/10 13:19:20;;;;;;;16.90;5.88;;;;;;;;;;4935086;29;20506;-78
2022/12/10 13:21:51;;;;;;;16.77;6.53;;;;;;;;;;4935564;29;20044;-75
2022/12/10 13:24:41;;;;;;;15.15;6.72;;;;;;;;;;4932826;29;20040;-76
2022/12/10 13:27:07;;;;;;;20.52;7.40;;;;;;;;;;4934068;29;20035;-77
2022/12/10 13:29:50;;;;;;;30.85;7.70;;;;;;;;;;4932783;29;20052;-74
2022/12/10 13:32:27;;;;;;;17.88;5.95;;;;;;;;;;4934494;29;20040;-74
2022/12/10 13:35:08;;;;;;;19.58;7.78;;;;;;;;;;4934694;29;20196;-76
2022/12/10 13:37:40;;;;;;;28.25;8.27;;;;;;;;;;4933543;29;20490;-78
2022/12/10 13:40:09;;;;;;;19.13;7.13;;;;;;;;;;4936705;29;20194;-77
2022/12/10 13:45:21;;;;;;;18.90;5.68;;;;;;;;;;4937779;29;20090;-78
2022/12/10 13:48:17;;;;;;;17.85;6.05;;;;;;;;;;4936924;29;20043;-79
2022/12/10 13:50:57;;;;;;;19.92;5.70;;;;;;;;;;4935766;29;20043;-77
2022/12/10 13:53:55;;;;;;;17.52;5.60;;;;;;;;;;4938529;29;20071;-81
2022/12/10 13:56:43;;;;;;;13.23;5.47;;;;;;;;;;4932359;29;20110;-78
2022/12/10 13:59:34;;;;;;;15.60;5.35;;;;;;;;;;4936662;29;20072;-80
2022/12/10 14:01:59;;;;;;;12.55;4.85;;;;;;;;;;4936856;29;20062;-76
2022/12/10 14:04:46;;;;;;;10.00;4.38;;;;;;;;;;4920794;29;20061;-76
2022/12/10 14:07:15;;;;;;;19.70;4.88;;;;;;;;;;4929029;29;20118;-75
2022/12/10 14:09:51;;;;;;;13.38;4.88;;;;;;;;;;4922655;29;20639;-75
2022/12/10 14:12:24;;;;;;;13.50;5.50;;;;;;;;;;4919681;29;20051;-76
2022/12/10 14:15:00;;;;;;;24.52;9.57;;;;;;;;;;4919535;29;20063;-78
2022/12/10 14:17:41;;;;;;;22.63;10.68;;;;;;;;;;4944575;29;20071;-74
2022/12/10 14:20:18;;;;;;;24.05;9.45;;;;;;;;;;4937113;29;20082;-76
2022/12/10 14:22:50;;;;;;;14.52;7.45;;;;;;;;;;4937369;29;20080;-75
2022/12/10 14:25:21;;;;;;;22.48;8.52;;;;;;;;;;4932138;29;20027;-75
2022/12/10 14:27:52;;;;;;;22.13;8.63;;;;;;;;;;4936866;29;20067;-76
2022/12/10 14:30:18;;;;;;;22.23;7.43;;;;;;;;;;4941357;28;20032;-76
2022/12/10 14:32:45;;;;;;;16.70;5.15;;;;;;;;;;4933241;29;20039;-74
2022/12/10 14:35:20;;;;;;;14.70;4.35;;;;;;;;;;4938742;29;20028;-74
2022/12/10 14:37:50;;;;;;;16.55;4.97;;;;;;;;;;4940126;29;20043;-76
2022/12/10 14:40:39;;;;;;;16.88;6.40;;;;;;;;;;4935106;29;20418;-76
2022/12/10 14:43:14;;;;;;;12.52;4.25;;;;;;;;;;4919004;29;20096;-75
2022/12/10 14:45:55;;;;;;;15.55;5.93;;;;;;;;;;4937635;29;20129;-79
2022/12/10 14:48:21;;;;;;;32.30;7.60;;;;;;;;;;4937021;29;20110;-77
2022/12/10 14:50:48;;;;;;;18.42;8.02;;;;;;;;;;4937554;28;20393;-77
2022/12/10 14:53:28;;;;;;;20.08;6.50;;;;;;;;;;4951855;29;20039;-76
2022/12/10 14:55:59;;;;;;;17.27;7.43;;;;;;;;;;4935420;29;20038;-77
2022/12/10 14:58:34;;;;;;;19.08;6.00;;;;;;;;;;4935133;29;20063;-77